Time;durP1;ratioP1;P1;durP2;ratioP2;P2;SDS_P1;SDS_P2;PMS_P1;PMS_P2;Temp;Humidity;BMP_temperature;BMP_pressure;BME280_temperature;BME280_humidity;BME280_pressure;Samples;Min_cycle;Max_cycle;Signal;HPM_P1;HPM_P2
2021/06/27 00:00:37;;;;;;;13.02;7.95;;;588.90;2432.00;;;;;;4975174;28;20026;-80
2021/06/27 00:03:04;;;;;;;15.27;7.25;;;564.10;2432.00;;;;;;4974235;28;20027;-81
2021/06/27 00:05:32;;;;;;;19.05;7.65;;;563.90;2432.00;;;;;;4973941;28;20062;-81
2021/06/27 00:07:59;;;;;;;17.73;8.40;;;563.70;2432.00;;;;;;4973998;28;20133;-81
2021/06/27 00:10:28;;;;;;;14.65;8.13;;;563.60;2432.00;;;;;;4974012;28;20371;-81
2021/06/27 00:12:55;;;;;;;15.48;8.02;;;563.60;2432.00;;;;;;4973859;28;20079;-82
2021/06/27 00:15:36;;;;;;;15.48;7.15;;;563.70;2432.00;;;;;;4975357;28;20105;-80
2021/06/27 00:18:05;;;;;;;18.60;6.95;;;563.70;2432.00;;;;;;4973968;28;20031;-82
2021/06/27 00:20:32;;;;;;;14.10;6.80;;;563.20;2432.00;;;;;;4973731;28;20030;-83
2021/06/27 00:22:59;;;;;;;22.50;8.13;;;564.10;2432.00;;;;;;4975022;28;20336;-81
2021/06/27 00:25:29;;;;;;;17.80;7.90;;;564.00;2432.00;;;;;;4973522;28;20023;-81
2021/06/27 00:27:55;;;;;;;18.05;7.97;;;564.00;2432.00;;;;;;4973680;28;20117;-81
2021/06/27 00:30:23;;;;;;;15.85;7.47;;;564.00;2432.00;;;;;;4973661;28;20015;-80
2021/06/27 00:32:49;;;;;;;15.00;6.97;;;564.00;2432.00;;;;;;4973698;28;20026;-81
2021/06/27 00:35:17;;;;;;;14.55;8.48;;;564.10;2432.00;;;;;;4973890;28;20022;-81
2021/06/27 00:37:44;;;;;;;22.00;8.38;;;563.90;2432.00;;;;;;4973673;28;20049;-82
2021/06/27 00:40:12;;;;;;;18.48;7.63;;;563.60;2432.00;;;;;;4973646;28;20026;-81
2021/06/27 00:42:39;;;;;;;16.52;8.20;;;563.60;2432.00;;;;;;4973718;28;20031;-80
2021/06/27 00:45:07;;;;;;;18.15;7.30;;;563.50;2432.00;;;;;;4973458;28;20120;-83
2021/06/27 00:47:35;;;;;;;17.98;8.20;;;563.70;2432.00;;;;;;4975971;28;20062;-82
2021/06/27 00:50:01;;;;;;;14.30;7.35;;;563.70;2432.00;;;;;;4977737;28;20454;-81
2021/06/27 00:52:27;;;;;;;12.27;7.00;;;563.80;2432.00;;;;;;4978966;28;20019;-80
2021/06/27 00:54:53;;;;;;;17.55;7.90;;;563.90;2432.00;;;;;;4976658;28;20148;-80
2021/06/27 00:57:20;;;;;;;17.15;8.13;;;564.00;2432.00;;;;;;4977542;28;20038;-82
2021/06/27 00:59:46;;;;;;;14.38;7.82;;;564.10;2432.00;;;;;;4978542;28;20027;-80
2021/06/27 01:02:12;;;;;;;20.98;8.95;;;564.10;2432.00;;;;;;4976977;28;20026;-82
2021/06/27 01:04:38;;;;;;;17.85;7.82;;;564.00;2432.00;;;;;;4976970;28;20033;-80
2021/06/27 01:07:06;;;;;;;15.48;7.95;;;563.90;2432.00;;;;;;4978362;28;20037;-82
2021/06/27 01:09:32;;;;;;;14.32;7.68;;;589.40;2432.00;;;;;;4977656;28;20074;-80
2021/06/27 01:11:59;;;;;;;17.65;7.40;;;563.90;2432.00;;;;;;4977825;28;20019;-80
2021/06/27 01:14:26;;;;;;;21.25;8.45;;;564.00;2432.00;;;;;;4977550;28;20023;-80
2021/06/27 01:16:52;;;;;;;18.30;8.73;;;564.10;2432.00;;;;;;4976533;28;20030;-79
2021/06/27 01:19:18;;;;;;;20.20;8.07;;;564.10;2432.00;;;;;;4976681;28;20130;-79
2021/06/27 01:21:44;;;;;;;16.77;7.72;;;564.10;2432.00;;;;;;4976492;28;20117;-79
2021/06/27 01:24:10;;;;;;;13.32;7.22;;;564.10;2432.00;;;;;;4976508;28;20018;-80
2021/06/27 01:26:36;;;;;;;15.95;7.60;;;564.10;2432.00;;;;;;4976211;28;20121;-82
2021/06/27 01:29:02;;;;;;;16.63;8.20;;;564.10;2432.00;;;;;;4976433;28;20124;-79
2021/06/27 01:31:29;;;;;;;18.38;7.63;;;564.00;2432.00;;;;;;4977363;28;20030;-81
2021/06/27 01:33:55;;;;;;;17.45;7.55;;;564.00;2432.00;;;;;;4976531;28;20023;-80
2021/06/27 01:36:24;;;;;;;13.45;7.25;;;564.10;2432.00;;;;;;4976095;28;20031;-82
2021/06/27 01:38:50;;;;;;;17.75;7.78;;;564.00;2432.00;;;;;;4976216;28;20023;-82
2021/06/27 01:41:17;;;;;;;19.45;7.13;;;564.00;2432.00;;;;;;4976130;28;20122;-80
2021/06/27 01:43:43;;;;;;;14.57;6.63;;;564.10;2432.00;;;;;;4976108;28;20034;-80
2021/06/27 01:46:09;;;;;;;16.27;7.55;;;564.10;2432.00;;;;;;4976113;28;20018;-81
2021/06/27 01:48:36;;;;;;;17.45;6.82;;;564.10;2432.00;;;;;;4976084;28;20517;-82
2021/06/27 01:51:06;;;;;;;16.20;7.30;;;564.10;2432.00;;;;;;4975813;28;20077;-81
2021/06/27 01:53:36;;;;;;;17.35;7.63;;;564.10;2432.00;;;;;;4975948;28;20019;-80
2021/06/27 01:56:06;;;;;;;21.02;8.00;;;564.00;2432.00;;;;;;4977052;28;20466;-81
2021/06/27 01:58:42;;;;;;;17.73;7.50;;;563.90;2432.00;;;;;;4976800;28;20062;-80
2021/06/27 02:01:18;;;;;;;17.90;9.88;;;564.00;2432.00;;;;;;4977124;28;20365;-79
2021/06/27 02:03:46;;;;;;;16.55;10.15;;;563.90;2432.00;;;;;;4975508;28;20058;-78
2021/06/27 02:06:12;;;;;;;16.55;11.40;;;563.90;2432.00;;;;;;4975655;28;20447;-79
2021/06/27 02:08:41;;;;;;;17.10;10.38;;;563.90;2432.00;;;;;;4975573;28;20026;-80
2021/06/27 02:11:09;;;;;;;21.40;12.75;;;563.90;2432.00;;;;;;4975205;28;20445;-82
2021/06/27 02:13:36;;;;;;;19.33;11.20;;;563.90;2432.00;;;;;;4975597;28;20023;-81
2021/06/27 02:16:02;;;;;;;16.67;10.57;;;563.90;2432.00;;;;;;4975617;28;20073;-82
2021/06/27 02:18:34;;;;;;;18.15;13.10;;;563.70;2432.00;;;;;;4976447;28;20062;-81
2021/06/27 02:21:09;;;;;;;15.98;11.88;;;563.60;2432.00;;;;;;4975360;28;20036;-81
2021/06/27 02:23:36;;;;;;;19.90;13.45;;;563.50;2432.00;;;;;;4975494;28;20023;-83
2021/06/27 02:26:03;;;;;;;19.67;12.82;;;563.50;2432.00;;;;;;4975182;28;20027;-81
2021/06/27 02:28:30;;;;;;;25.13;12.05;;;563.50;2432.00;;;;;;4975300;28;20026;-79
2021/06/27 02:30:57;;;;;;;20.90;11.80;;;563.60;2432.00;;;;;;4975174;28;20023;-83
2021/06/27 02:33:23;;;;;;;18.73;12.45;;;563.40;2432.00;;;;;;4974975;28;20026;-81
2021/06/27 02:35:49;;;;;;;22.95;11.73;;;563.30;2432.00;;;;;;4975159;28;20451;-81
2021/06/27 02:38:16;;;;;;;20.13;12.63;;;563.40;2432.00;;;;;;4975044;28;20035;-81
2021/06/27 02:40:43;;;;;;;17.10;12.30;;;564.00;2432.00;;;;;;4974856;28;20451;-82
2021/06/27 02:43:09;;;;;;;20.65;12.90;;;563.50;2432.00;;;;;;4974896;28;20463;-82
2021/06/27 02:45:36;;;;;;;23.88;13.02;;;564.10;2432.00;;;;;;4974706;28;20026;-81
2021/06/27 02:48:02;;;;;;;27.70;13.70;;;538.50;2406.40;;;;;;4974731;28;20026;-80
2021/06/27 02:50:27;;;;;;;22.85;13.88;;;563.30;2432.00;;;;;;4974829;28;20026;-80
2021/06/27 02:52:53;;;;;;;21.27;13.90;;;563.30;2432.00;;;;;;4974504;28;20422;-80
2021/06/27 02:55:19;;;;;;;22.05;13.80;;;563.30;2432.00;;;;;;4974552;28;20051;-79
2021/06/27 02:57:45;;;;;;;26.17;13.55;;;563.30;2432.00;;;;;;4975699;28;20110;-82
2021/06/27 03:00:16;;;;;;;17.50;12.55;;;563.20;2432.00;;;;;;4975802;28;20027;-80
2021/06/27 03:02:42;;;;;;;28.02;14.07;;;563.30;2432.00;;;;;;4974259;28;20050;-81
2021/06/27 03:05:10;;;;;;;21.58;14.25;;;563.30;2432.00;;;;;;4974554;28;20105;-83
2021/06/27 03:07:36;;;;;;;23.00;13.75;;;563.20;2432.00;;;;;;4975507;28;20026;-82
2021/06/27 03:10:03;;;;;;;19.25;14.52;;;538.50;2406.40;;;;;;4974053;28;20034;-81
2021/06/27 03:12:29;;;;;;;26.27;14.68;;;538.50;2406.40;;;;;;4974236;28;20110;-81
2021/06/27 03:14:54;;;;;;;25.08;13.85;;;538.50;2406.40;;;;;;4974328;28;20161;-84
2021/06/27 03:17:20;;;;;;;17.67;13.63;;;538.50;2406.40;;;;;;4975153;28;20034;-83
2021/06/27 03:19:46;;;;;;;24.10;14.18;;;563.20;2432.00;;;;;;4974250;28;20463;-83
2021/06/27 03:22:12;;;;;;;21.10;13.80;;;563.20;2432.00;;;;;;4974342;28;20029;-82
2021/06/27 03:24:37;;;;;;;21.65;13.80;;;563.20;2432.00;;;;;;4974347;28;20031;-83
2021/06/27 03:27:04;;;;;;;21.75;13.43;;;538.50;2406.40;;;;;;4974608;28;20022;-83
2021/06/27 03:29:31;;;;;;;18.35;14.27;;;538.50;2406.40;;;;;;4974232;28;20071;-81
2021/06/27 03:31:57;;;;;;;22.17;14.63;;;538.40;2406.40;;;;;;4974577;28;20348;-82
2021/06/27 03:34:22;;;;;;;21.60;14.65;;;538.40;2406.40;;;;;;4974520;28;20034;-83
2021/06/27 03:36:48;;;;;;;26.52;17.40;;;538.40;2406.40;;;;;;4974094;28;20023;-82
2021/06/27 03:39:16;;;;;;;23.38;14.80;;;538.40;2406.40;;;;;;4974373;28;20121;-82
2021/06/27 03:41:48;;;;;;;21.55;15.13;;;538.30;2406.40;;;;;;4973903;28;20023;-83
2021/06/27 03:44:14;;;;;;;25.42;14.40;;;538.40;2406.40;;;;;;4974411;28;20034;-85
2021/06/27 03:46:40;;;;;;;21.42;15.90;;;538.40;2406.40;;;;;;4974160;28;20030;-81
2021/06/27 03:49:06;;;;;;;23.15;16.65;;;538.40;2406.40;;;;;;4973619;28;20451;-82
2021/06/27 03:51:32;;;;;;;21.40;14.88;;;538.40;2406.40;;;;;;4974109;28;20027;-82
2021/06/27 03:53:58;;;;;;;27.48;16.13;;;538.30;2406.40;;;;;;4973847;28;20026;-84
2021/06/27 03:56:24;;;;;;;22.40;15.15;;;537.90;2406.40;;;;;;4973876;28;20062;-82
2021/06/27 03:58:50;;;;;;;23.58;15.98;;;538.40;2406.40;;;;;;4973991;28;20062;-83
2021/06/27 04:01:17;;;;;;;21.70;14.23;;;538.40;2406.40;;;;;;4974251;28;20118;-82
2021/06/27 04:03:43;;;;;;;27.25;16.52;;;538.50;2406.40;;;;;;4974095;28;20019;-81
2021/06/27 04:06:09;;;;;;;23.50;16.83;;;538.40;2406.40;;;;;;4973892;28;20371;-82
2021/06/27 04:08:35;;;;;;;22.95;16.08;;;538.40;2406.40;;;;;;4974160;28;20444;-84
2021/06/27 04:11:00;;;;;;;28.90;16.70;;;538.50;2406.40;;;;;;4975121;28;20038;-83
2021/06/27 04:13:28;;;;;;;22.80;16.40;;;538.30;2406.40;;;;;;4974193;28;20015;-83
2021/06/27 04:15:55;;;;;;;27.48;15.68;;;538.30;2406.40;;;;;;4974199;28;20023;-83
2021/06/27 04:18:22;;;;;;;23.92;14.40;;;538.20;2406.40;;;;;;4973900;28;20043;-82
2021/06/27 04:20:49;;;;;;;26.95;13.02;;;538.30;2406.40;;;;;;4975461;28;20027;-82
2021/06/27 04:23:15;;;;;;;25.15;15.43;;;538.40;2406.40;;;;;;4981314;28;20021;-82
2021/06/27 04:25:41;;;;;;;31.00;18.55;;;538.50;2406.40;;;;;;4977829;28;20037;-81
2021/06/27 04:28:07;;;;;;;19.92;15.73;;;538.50;2406.40;;;;;;4977817;28;20034;-81
2021/06/27 04:30:34;;;;;;;23.95;13.75;;;538.50;2406.40;;;;;;4977373;28;20023;-83
2021/06/27 04:33:00;;;;;;;17.27;13.98;;;538.50;2406.40;;;;;;4977618;28;20026;-81
2021/06/27 04:35:27;;;;;;;19.15;14.13;;;538.50;2406.40;;;;;;4977372;28;20521;-82
2021/06/27 04:37:53;;;;;;;20.25;15.45;;;563.60;2432.00;;;;;;4977368;28;20027;-83
2021/06/27 04:40:19;;;;;;;21.55;14.10;;;538.30;2406.40;;;;;;4977542;28;20094;-82
2021/06/27 04:42:45;;;;;;;23.33;14.07;;;538.50;2406.40;;;;;;4978579;28;20023;-81
2021/06/27 04:45:11;;;;;;;19.00;14.20;;;563.20;2432.00;;;;;;4977170;28;20026;-83
2021/06/27 04:47:40;;;;;;;24.88;16.08;;;563.30;2432.00;;;;;;4978205;28;20027;-80
2021/06/27 04:50:06;;;;;;;22.67;15.65;;;563.30;2432.00;;;;;;4977166;28;20537;-81
2021/06/27 04:52:33;;;;;;;24.05;16.45;;;563.20;2432.00;;;;;;4977217;28;20031;-81
2021/06/27 04:55:00;;;;;;;34.35;18.08;;;538.50;2406.40;;;;;;4976675;28;20050;-82
2021/06/27 04:57:26;;;;;;;20.75;16.70;;;538.50;2406.40;;;;;;4976874;28;20464;-81
2021/06/27 04:59:51;;;;;;;21.88;15.10;;;563.20;2432.00;;;;;;4977254;28;20033;-81
2021/06/27 05:02:18;;;;;;;23.70;16.05;;;563.30;2432.00;;;;;;4976646;28;20029;-82
2021/06/27 05:04:44;;;;;;;20.65;14.40;;;563.30;2432.00;;;;;;4976190;28;20030;-80
2021/06/27 05:07:10;;;;;;;25.02;14.27;;;563.60;2432.00;;;;;;4976721;28;20054;-82
2021/06/27 05:09:36;;;;;;;23.08;15.15;;;563.60;2432.00;;;;;;4976731;28;20026;-83
2021/06/27 05:12:02;;;;;;;19.73;15.18;;;563.60;2432.00;;;;;;4977997;28;20109;-81
2021/06/27 05:14:28;;;;;;;18.67;14.05;;;563.70;2432.00;;;;;;4976200;28;20026;-81
2021/06/27 05:16:54;;;;;;;20.95;14.73;;;563.60;2432.00;;;;;;4977614;28;20035;-81
2021/06/27 05:19:20;;;;;;;17.42;13.35;;;563.60;2432.00;;;;;;4977580;28;20464;-81
2021/06/27 05:21:46;;;;;;;22.10;15.70;;;563.60;2432.00;;;;;;4976187;28;20023;-82
2021/06/27 05:24:12;;;;;;;21.17;15.18;;;563.60;2432.00;;;;;;4976145;28;20023;-82
2021/06/27 05:26:37;;;;;;;23.73;17.13;;;563.70;2432.00;;;;;;4976485;28;20034;-81
2021/06/27 05:29:04;;;;;;;29.65;18.92;;;563.70;2432.00;;;;;;4976311;28;20069;-82
2021/06/27 05:31:33;;;;;;;23.13;17.75;;;563.90;2432.00;;;;;;4975835;28;20022;-82
2021/06/27 05:33:59;;;;;;;34.95;21.08;;;564.00;2432.00;;;;;;4975693;28;20019;-83
2021/06/27 05:36:25;;;;;;;32.20;20.80;;;588.80;2432.00;;;;;;4976023;28;20023;-80
2021/06/27 05:38:51;;;;;;;33.80;21.63;;;564.10;2432.00;;;;;;4976742;28;20363;-79
2021/06/27 05:41:17;;;;;;;26.88;18.55;;;564.10;2432.00;;;;;;4975898;28;20073;-81
2021/06/27 05:43:43;;;;;;;33.83;18.63;;;564.10;2432.00;;;;;;4976809;28;20023;-80
2021/06/27 05:46:09;;;;;;;24.48;16.27;;;564.10;2432.00;;;;;;4976979;28;20102;-78
2021/06/27 05:48:34;;;;;;;27.08;17.10;;;564.10;2432.00;;;;;;4975829;28;20027;-81
2021/06/27 05:51:00;;;;;;;21.75;16.35;;;588.90;2432.00;;;;;;4975764;28;20027;-81
2021/06/27 05:53:26;;;;;;;30.27;16.25;;;589.00;2432.00;;;;;;4975505;28;20522;-80
2021/06/27 05:56:09;;;;;;;30.52;16.02;;;589.00;2432.00;;;;;;4975407;28;20541;-81
2021/06/27 05:58:39;;;;;;;22.10;16.83;;;564.10;2432.00;;;;;;4976639;28;20029;-80
2021/06/27 06:01:06;;;;;;;31.05;16.05;;;564.00;2432.00;;;;;;4975676;28;20363;-82
2021/06/27 06:03:33;;;;;;;24.08;16.02;;;564.10;2432.00;;;;;;4975388;28;20030;-82
2021/06/27 06:05:59;;;;;;;27.23;17.40;;;588.80;2432.00;;;;;;4976547;28;20022;-82
2021/06/27 06:08:25;;;;;;;21.70;16.50;;;589.00;2432.00;;;;;;4976619;28;20062;-80
2021/06/27 06:10:51;;;;;;;25.77;16.98;;;589.00;2432.00;;;;;;4975269;28;20077;-81
2021/06/27 06:13:17;;;;;;;22.17;16.33;;;589.10;2432.00;;;;;;4975042;28;20026;-81
2021/06/27 06:15:42;;;;;;;30.30;16.55;;;589.30;2432.00;;;;;;4975237;28;20117;-82
2021/06/27 06:18:08;;;;;;;29.27;16.95;;;589.50;2432.00;;;;;;4975132;28;20486;-82
2021/06/27 06:20:35;;;;;;;27.42;15.80;;;589.60;2432.00;;;;;;4974848;28;20026;-80
2021/06/27 06:23:00;;;;;;;27.67;18.15;;;589.70;2432.00;;;;;;4976132;28;20030;-81
2021/06/27 06:25:26;;;;;;;28.00;15.13;;;614.40;2432.00;;;;;;4975165;28;20019;-80
2021/06/27 06:27:52;;;;;;;20.55;14.55;;;614.60;2432.00;;;;;;4974929;28;20023;-82
2021/06/27 06:30:18;;;;;;;25.05;15.00;;;614.60;2432.00;;;;;;4975066;28;20026;-81
2021/06/27 06:32:44;;;;;;;26.00;13.93;;;614.50;2432.00;;;;;;4974961;28;20115;-80
2021/06/27 06:35:11;;;;;;;21.13;14.13;;;614.60;2432.00;;;;;;4975040;28;20033;-80
2021/06/27 06:37:36;;;;;;;25.75;14.43;;;614.70;2432.00;;;;;;4976334;28;20023;-81
2021/06/27 06:40:07;;;;;;;22.80;14.77;;;614.80;2432.00;;;;;;4975249;28;20134;-81
2021/06/27 06:42:32;;;;;;;20.80;13.30;;;615.10;2432.00;;;;;;4975085;28;20081;-81
2021/06/27 06:44:59;;;;;;;22.10;13.13;;;615.20;2432.00;;;;;;4974443;28;20035;-81
2021/06/27 06:47:25;;;;;;;21.55;13.00;;;615.30;2432.00;;;;;;4975095;28;20125;-82
2021/06/27 06:49:51;;;;;;;21.23;11.75;;;640.10;2432.00;;;;;;4976507;28;20069;-83
2021/06/27 06:52:17;;;;;;;18.95;12.30;;;640.10;2432.00;;;;;;4976495;28;20074;-80
2021/06/27 06:54:43;;;;;;;21.20;11.30;;;640.20;2432.00;;;;;;4974517;28;20097;-81
2021/06/27 06:57:09;;;;;;;19.23;12.32;;;640.10;2432.00;;;;;;4974994;28;20030;-80
2021/06/27 06:59:35;;;;;;;15.10;9.75;;;640.20;2432.00;;;;;;4974769;28;20052;-83
2021/06/27 07:02:01;;;;;;;23.90;9.98;;;640.50;2432.00;;;;;;4974724;28;20451;-80
2021/06/27 07:04:27;;;;;;;14.50;8.98;;;640.50;2432.00;;;;;;4974638;28;20019;-81
2021/06/27 07:06:53;;;;;;;21.60;10.13;;;640.70;2432.00;;;;;;4974672;28;20081;-81
2021/06/27 07:09:19;;;;;;;16.90;10.35;;;640.90;2432.00;;;;;;4974632;28;20023;-82
2021/06/27 07:11:45;;;;;;;22.77;9.20;;;665.60;2432.00;;;;;;4974755;28;20030;-81
2021/06/27 07:14:11;;;;;;;19.13;9.57;;;665.80;2432.00;;;;;;4974570;28;20027;-80
2021/06/27 07:16:37;;;;;;;16.08;9.35;;;665.70;2432.00;;;;;;4973979;28;20038;-83
2021/06/27 07:19:03;;;;;;;20.13;10.20;;;665.80;2432.00;;;;;;4975034;28;20367;-82
2021/06/27 07:21:29;;;;;;;21.45;9.27;;;665.90;2432.00;;;;;;4977101;28;20034;-79
2021/06/27 07:23:56;;;;;;;11.23;7.63;;;665.90;2432.00;;;;;;4974449;28;20025;-78
2021/06/27 07:26:23;;;;;;;11.35;8.27;;;665.60;2432.00;;;;;;4958862;28;20023;-80
2021/06/27 07:28:48;;;;;;;13.05;8.43;;;665.60;2432.00;;;;;;4974958;28;20035;-80
2021/06/27 07:31:14;;;;;;;13.52;7.78;;;665.80;2432.00;;;;;;4974520;28;20048;-80
2021/06/27 07:33:40;;;;;;;15.98;7.60;;;665.80;2432.00;;;;;;4975023;28;20117;-82
2021/06/27 07:36:06;;;;;;;9.55;6.68;;;665.90;2432.00;;;;;;4974751;28;20426;-82
2021/06/27 07:38:32;;;;;;;14.15;6.55;;;666.10;2432.00;;;;;;4975165;28;20038;-80
2021/06/27 07:40:58;;;;;;;13.30;7.13;;;666.20;2432.00;;;;;;4974487;28;20118;-81
2021/06/27 07:43:24;;;;;;;9.48;6.28;;;666.10;2432.00;;;;;;4974460;28;20027;-82
2021/06/27 07:45:50;;;;;;;15.15;7.28;;;666.30;2432.00;;;;;;4974625;28;20065;-83
2021/06/27 07:48:16;;;;;;;11.57;6.22;;;691.20;2432.00;;;;;;4974137;28;20034;-81
2021/06/27 07:50:42;;;;;;;12.70;5.90;;;691.20;2432.00;;;;;;4974118;28;20030;-83
2021/06/27 07:53:08;;;;;;;12.38;6.15;;;691.30;2432.00;;;;;;4973911;28;20023;-81
2021/06/27 07:55:34;;;;;;;7.78;5.38;;;691.40;2432.00;;;;;;4974822;28;20042;-83
2021/06/27 07:58:01;;;;;;;11.27;6.05;;;691.50;2432.00;;;;;;4973938;28;20035;-79
2021/06/27 08:00:29;;;;;;;9.98;6.00;;;691.70;2432.00;;;;;;4974283;28;20086;-82
2021/06/27 08:02:56;;;;;;;8.57;5.60;;;691.80;2432.00;;;;;;4975549;28;20439;-80
2021/06/27 08:05:22;;;;;;;9.40;4.60;;;691.90;2432.00;;;;;;4973764;28;20454;-81
2021/06/27 08:07:48;;;;;;;12.88;5.45;;;691.80;2432.00;;;;;;4973883;28;20027;-81
2021/06/27 08:10:15;;;;;;;11.93;5.53;;;716.80;2432.00;;;;;;4974342;28;20030;-81
2021/06/27 08:12:41;;;;;;;12.32;5.32;;;716.80;2432.00;;;;;;4973556;28;20082;-83
2021/06/27 08:15:09;;;;;;;7.95;4.75;;;717.10;2432.00;;;;;;4975334;28;20019;-81
2021/06/27 08:17:35;;;;;;;10.68;5.07;;;717.30;2432.00;;;;;;4973914;28;20478;-80
2021/06/27 08:20:05;;;;;;;10.48;5.40;;;717.40;2432.00;;;;;;4973838;28;20030;-80
2021/06/27 08:22:31;;;;;;;8.13;4.57;;;717.60;2432.00;;;;;;4973969;28;20023;-80
2021/06/27 08:24:57;;;;;;;9.80;5.38;;;742.40;2432.00;;;;;;4973975;28;20025;-79
2021/06/27 08:27:23;;;;;;;11.32;6.05;;;742.40;2432.00;;;;;;4973662;28;20057;-81
2021/06/27 08:29:48;;;;;;;14.23;5.03;;;742.40;2432.00;;;;;;4974762;28;20030;-81
2021/06/27 08:32:14;;;;;;;10.68;4.72;;;742.60;2432.00;;;;;;4973288;28;20117;-81
2021/06/27 08:34:40;;;;;;;12.20;5.20;;;742.60;2432.00;;;;;;4973712;28;20027;-81
2021/06/27 08:37:06;;;;;;;7.82;4.32;;;742.60;2432.00;;;;;;4974539;28;20371;-81
2021/06/27 08:39:32;;;;;;;11.52;4.88;;;742.60;2432.00;;;;;;4973345;28;20372;-83
2021/06/27 08:41:58;;;;;;;13.75;4.82;;;742.60;2432.00;;;;;;4973622;28;20023;-82
2021/06/27 08:44:24;;;;;;;8.85;4.38;;;742.70;2432.00;;;;;;4973477;28;20079;-82
2021/06/27 08:46:50;;;;;;;9.43;4.43;;;742.90;2432.00;;;;;;4973157;28;20023;-83
2021/06/27 08:49:17;;;;;;;7.35;4.65;;;743.00;2432.00;;;;;;4973313;28;20109;-84
2021/06/27 08:51:43;;;;;;;7.93;4.35;;;743.10;2432.00;;;;;;4973519;28;20050;-81
2021/06/27 08:54:11;;;;;;;6.97;4.32;;;743.30;2432.00;;;;;;4972928;28;20403;-81
2021/06/27 08:56:38;;;;;;;8.13;4.80;;;743.10;2432.00;;;;;;4973196;28;20035;-80
2021/06/27 08:59:05;;;;;;;8.07;4.13;;;742.70;2432.00;;;;;;4973362;28;20023;-81
2021/06/27 09:01:31;;;;;;;8.02;4.68;;;742.80;2432.00;;;;;;4972910;28;20378;-77
2021/06/27 09:03:57;;;;;;;8.70;4.72;;;742.60;2432.00;;;;;;4972977;28;20034;-79
2021/06/27 09:06:31;;;;;;;9.75;3.95;;;743.00;2432.00;;;;;;4972986;28;20469;-75
2021/06/27 09:09:13;;;;;;;9.20;4.57;;;743.10;2432.00;;;;;;4975357;28;20513;-77
2021/06/27 09:11:55;;;;;;;7.30;5.00;;;743.30;2432.00;;;;;;4976319;28;20030;-79
2021/06/27 09:14:33;;;;;;;6.78;4.97;;;743.20;2432.00;;;;;;4976385;28;20268;-77
2021/06/27 09:17:23;;;;;;;9.68;5.68;;;743.00;2432.00;;;;;;4976459;28;20419;-80
2021/06/27 09:19:52;;;;;;;12.98;7.75;;;742.90;2432.00;;;;;;4976036;28;20420;-79
2021/06/27 09:22:23;;;;;;;7.18;4.25;;;743.10;2432.00;;;;;;4976099;28;20089;-78
2021/06/27 09:24:50;;;;;;;6.28;4.38;;;743.10;2432.00;;;;;;4977827;28;20455;-76
2021/06/27 09:27:20;;;;;;;7.55;4.35;;;743.10;2406.40;;;;;;4976290;28;20521;-79
2021/06/27 09:29:46;;;;;;;8.23;4.60;;;768.00;2432.00;;;;;;4977177;28;20160;-81
2021/06/27 09:32:19;;;;;;;10.15;5.00;;;768.20;2406.40;;;;;;4976321;28;20332;-80
2021/06/27 09:34:46;;;;;;;7.90;4.00;;;768.60;2355.20;;;;;;4976269;28;20019;-79
2021/06/27 09:37:16;;;;;;;13.20;6.70;;;768.40;2227.20;;;;;;4976606;28;20034;-81
2021/06/27 09:40:01;;;;;;;13.63;5.88;;;768.10;2227.20;;;;;;4980775;28;20034;-76
2021/06/27 09:42:29;;;;;;;14.07;5.65;;;768.50;2329.60;;;;;;4975705;28;20018;-78
2021/06/27 09:45:08;;;;;;;9.38;4.90;;;768.50;2329.60;;;;;;4977557;28;20014;-81
2021/06/27 09:47:35;;;;;;;11.80;4.75;;;768.20;2227.20;;;;;;4976341;28;20514;-80
2021/06/27 09:50:30;;;;;;;9.20;4.80;;;743.30;2329.60;;;;;;4978976;28;20030;-80
2021/06/27 09:52:56;;;;;;;8.07;4.50;;;743.20;2329.60;;;;;;4989174;28;20030;-78
2021/06/27 09:55:22;;;;;;;11.52;5.55;;;768.10;2304.00;;;;;;4975008;28;20046;-79
2021/06/27 09:57:48;;;;;;;6.60;4.13;;;768.50;2304.00;;;;;;4975293;28;20348;-80
2021/06/27 10:00:34;;;;;;;8.98;5.05;;;793.60;2201.60;;;;;;4977161;28;20019;-80
2021/06/27 10:03:05;;;;;;;8.75;4.15;;;793.90;2201.60;;;;;;4975455;28;20042;-77
2021/06/27 10:05:33;;;;;;;7.72;3.80;;;794.00;2022.40;;;;;;4975472;28;20031;-77
2021/06/27 10:07:59;;;;;;;5.43;3.40;;;794.00;2048.00;;;;;;4975663;28;20108;-80
2021/06/27 10:10:26;;;;;;;8.88;4.28;;;794.40;2022.40;;;;;;4975153;28;20070;-78
2021/06/27 10:12:52;;;;;;;6.68;3.88;;;819.20;1996.80;;;;;;4975613;28;20030;-82
2021/06/27 10:15:19;;;;;;;8.85;3.95;;;819.30;1920.00;;;;;;4982987;28;20022;-80
2021/06/27 10:17:46;;;;;;;6.10;3.78;;;820.00;1817.60;;;;;;4973444;28;20026;-78
2021/06/27 10:20:15;;;;;;;5.80;3.53;;;819.60;1792.00;;;;;;4973868;28;20030;-77
2021/06/27 10:22:42;;;;;;;7.78;3.17;;;819.80;1740.80;;;;;;4975014;28;20358;-78
2021/06/27 10:25:13;;;;;;;8.38;3.67;;;819.90;1715.20;;;;;;4974860;28;20446;-77
2021/06/27 10:27:40;;;;;;;7.22;4.28;;;844.80;1766.40;;;;;;4976693;28;20041;-77
2021/06/27 10:30:09;;;;;;;9.30;3.97;;;820.10;1715.20;;;;;;4975071;28;20033;-78
2021/06/27 10:32:44;;;;;;;6.82;4.10;;;844.80;1740.80;;;;;;4976280;28;20030;-76
2021/06/27 10:35:12;;;;;;;12.68;4.53;;;845.10;1740.80;;;;;;4975814;28;20022;-76
2021/06/27 10:37:42;;;;;;;15.45;4.57;;;845.20;1689.60;;;;;;4974766;28;20061;-79
2021/06/27 10:40:13;;;;;;;9.93;5.18;;;845.20;1664.00;;;;;;4974229;28;20078;-78
2021/06/27 10:43:01;;;;;;;5.88;4.22;;;845.40;1664.00;;;;;;4974478;28;20014;-80
2021/06/27 10:45:32;;;;;;;18.33;5.47;;;845.60;1664.00;;;;;;4972532;28;20035;-80
2021/06/27 10:48:00;;;;;;;19.77;5.53;;;845.60;1664.00;;;;;;4973253;28;20026;-77
2021/06/27 10:50:52;;;;;;;10.57;4.72;;;845.70;1638.40;;;;;;4974245;28;20139;-78
2021/06/27 10:53:18;;;;;;;8.52;3.80;;;870.60;1612.80;;;;;;4979737;28;20033;-78
2021/06/27 10:55:45;;;;;;;7.25;3.30;;;870.60;1612.80;;;;;;4973195;28;20039;-75
2021/06/27 10:58:14;;;;;;;7.25;3.63;;;870.60;1587.20;;;;;;4987582;28;20709;-77
2021/06/27 11:00:53;;;;;;;6.93;3.95;;;845.20;1638.40;;;;;;4983330;28;20121;-79
2021/06/27 11:03:33;;;;;;;5.28;4.10;;;845.40;1715.20;;;;;;4981809;28;20019;-78
2021/06/27 11:06:01;;;;;;;7.75;4.55;;;844.80;1715.20;;;;;;4982026;28;20358;-77
2021/06/27 11:08:37;;;;;;;11.00;5.00;;;819.80;1638.40;;;;;;4982785;28;20023;-77
2021/06/27 11:11:09;;;;;;;6.80;4.68;;;819.50;1689.60;;;;;;4983852;28;20023;-77
2021/06/27 11:13:37;;;;;;;6.40;3.30;;;819.20;1715.20;;;;;;4977937;28;20186;-79
2021/06/27 11:16:11;;;;;;;7.55;4.13;;;794.40;1715.20;;;;;;4981722;28;20023;-80
2021/06/27 11:18:49;;;;;;;4.63;3.53;;;794.40;1792.00;;;;;;4985128;28;20030;-80
2021/06/27 11:21:24;;;;;;;7.63;4.30;;;794.20;1740.80;;;;;;4976885;28;20057;-78
2021/06/27 11:23:57;;;;;;;7.57;4.30;;;794.00;1766.40;;;;;;4982028;28;20109;-78
2021/06/27 11:26:41;;;;;;;10.23;4.40;;;794.20;1792.00;;;;;;4994675;28;20022;-79
2021/06/27 11:29:25;;;;;;;6.90;4.22;;;819.60;1740.80;;;;;;4989523;28;20126;-80
2021/06/27 11:32:09;;;;;;;6.45;4.13;;;820.10;1715.20;;;;;;4979224;28;20306;-79
2021/06/27 11:34:36;;;;;;;12.18;5.80;;;845.20;1740.80;;;;;;4978779;28;20042;-78
2021/06/27 11:37:17;;;;;;;7.10;4.22;;;845.40;1689.60;;;;;;4981174;28;20037;-80
2021/06/27 11:39:51;;;;;;;5.70;3.95;;;845.70;1664.00;;;;;;4981695;28;20027;-78
2021/06/27 11:42:23;;;;;;;9.20;4.10;;;845.00;1638.40;;;;;;4979808;28;20045;-81
2021/06/27 11:45:10;;;;;;;9.55;5.13;;;845.40;1638.40;;;;;;4984914;28;20030;-80
2021/06/27 11:47:37;;;;;;;6.88;4.25;;;845.70;1638.40;;;;;;4982145;28;20050;-83
2021/06/27 11:50:16;;;;;;;10.02;4.82;;;845.70;1612.80;;;;;;4981755;28;20022;-80
2021/06/27 11:52:43;;;;;;;10.63;4.65;;;845.20;1664.00;;;;;;4981970;28;20026;-80
2021/06/27 11:55:09;;;;;;;8.25;5.07;;;845.50;1638.40;;;;;;4983161;28;20137;-81
2021/06/27 11:57:39;;;;;;;16.48;13.70;;;870.50;1638.40;;;;;;4984630;28;20026;-82
2021/06/27 12:00:07;;;;;;;8.50;4.13;;;870.60;1664.00;;;;;;4982516;28;20406;-80
2021/06/27 12:02:36;;;;;;;6.38;4.18;;;870.70;1612.80;;;;;;4978847;28;20021;-80
2021/06/27 12:05:07;;;;;;;9.05;4.15;;;870.90;1587.20;;;;;;4981454;28;20056;-81
2021/06/27 12:07:33;;;;;;;;;;;870.90;1561.60;;;;;;4977031;28;20113;-81
2021/06/27 12:10:18;;;;;;;5.82;4.20;;;871.00;1587.20;;;;;;4983097;28;20434;-79